createdAt,value
2022-12-23T00:01:23.143Z,4.03
2022-12-23T00:03:50.016Z,4.63
2022-12-23T00:06:17.319Z,4.05
2022-12-23T00:08:44.039Z,4.03
2022-12-23T00:11:14.761Z,4.53
2022-12-23T00:13:59.663Z,4.10
2022-12-23T00:16:26.212Z,5.22
2022-12-23T00:18:53.458Z,3.95
2022-12-23T00:21:19.971Z,4.85
2022-12-23T00:23:48.781Z,4.80
2022-12-23T00:26:23.246Z,4.75
2022-12-23T00:28:50.435Z,4.65
2022-12-23T00:31:18.720Z,4.40
2022-12-23T00:33:48.018Z,4.93
2022-12-23T00:36:35.345Z,5.10
2022-12-23T00:39:20.143Z,4.28
2022-12-23T00:42:05.324Z,4.28
2022-12-23T00:44:32.339Z,4.47
2022-12-23T00:46:58.838Z,4.47
2022-12-23T00:49:43.510Z,4.93
2022-12-23T00:52:15.799Z,4.28
2022-12-23T00:54:42.351Z,5.10
2022-12-23T00:57:08.728Z,4.53
2022-12-23T00:59:35.421Z,5.07
2022-12-23T01:02:20.918Z,4.80
2022-12-23T01:05:06.040Z,5.15
2022-12-23T01:07:32.374Z,5.10
2022-12-23T01:09:58.887Z,4.72
2022-12-23T01:12:25.343Z,4.95
2022-12-23T01:14:51.750Z,5.88
2022-12-23T01:17:18.120Z,5.40
2022-12-23T01:19:44.453Z,5.68
2022-12-23T01:22:10.966Z,5.38
2022-12-23T01:24:37.298Z,4.82
2022-12-23T01:27:03.688Z,5.45
2022-12-23T01:29:30.086Z,5.70
2022-12-23T01:31:56.742Z,5.13
2022-12-23T01:34:23.320Z,5.68
2022-12-23T01:36:49.670Z,5.15
2022-12-23T01:39:16.095Z,5.88
2022-12-23T01:42:01.249Z,5.80
2022-12-23T01:44:49.054Z,6.20
2022-12-23T01:47:27.800Z,5.50
2022-12-23T01:50:11.618Z,6.28
2022-12-23T01:52:45.349Z,6.07
2022-12-23T01:55:14.522Z,5.47
2022-12-23T01:57:42.869Z,5.43
2022-12-23T02:00:28.913Z,5.68
2022-12-23T02:03:13.969Z,5.35
2022-12-23T02:05:42.019Z,5.47
2022-12-23T02:08:26.992Z,5.68
2022-12-23T02:11:29.837Z,6.25
2022-12-23T02:14:30.424Z,5.13
2022-12-23T02:17:22.883Z,5.05
2022-12-23T02:19:55.356Z,5.55
2022-12-23T02:22:55.417Z,5.78
2022-12-23T02:25:31.361Z,5.80
2022-12-23T02:28:11.448Z,5.70
2022-12-23T02:30:48.267Z,5.20
2022-12-23T02:33:17.365Z,5.88
2022-12-23T02:36:17.716Z,5.55
2022-12-23T02:38:53.134Z,5.70
2022-12-23T02:41:28.494Z,6.53
2022-12-23T02:44:01.807Z,5.88
2022-12-23T02:46:38.439Z,5.75
2022-12-23T02:49:10.862Z,6.50
2022-12-23T02:51:44.211Z,6.13
2022-12-23T02:54:15.204Z,6.57
2022-12-23T02:56:46.202Z,6.10
2022-12-23T02:59:20.502Z,7.03
2022-12-23T03:01:48.596Z,7.10
2022-12-23T03:04:15.532Z,6.65
2022-12-23T03:06:44.702Z,7.53
2022-12-23T03:09:20.351Z,7.85
2022-12-23T03:12:17.216Z,7.85
2022-12-23T03:14:59.272Z,8.48
2022-12-23T03:17:31.753Z,8.63
2022-12-23T03:20:46.541Z,8.93
2022-12-23T03:23:25.173Z,8.85
2022-12-23T03:26:07.315Z,9.63
2022-12-23T03:28:47.637Z,9.50
2022-12-23T03:31:22.707Z,9.73
2022-12-23T03:33:54.754Z,9.60
2022-12-23T03:36:29.112Z,9.13
2022-12-23T03:38:57.012Z,9.77
2022-12-23T03:41:30.649Z,9.88
2022-12-23T03:44:06.557Z,9.32
2022-12-23T03:47:08.239Z,9.70
2022-12-23T03:49:42.860Z,9.02
2022-12-23T03:52:20.800Z,9.70
2022-12-23T03:54:57.810Z,9.65
2022-12-23T03:57:37.156Z,9.00
2022-12-23T04:00:04.598Z,8.77
2022-12-23T04:02:41.288Z,8.07
2022-12-23T04:05:37.496Z,9.00
2022-12-23T04:08:22.634Z,9.15
2022-12-23T04:10:49.782Z,8.85
2022-12-23T04:13:16.340Z,9.63
2022-12-23T04:15:43.516Z,9.65
2022-12-23T04:18:11.402Z,10.05
2022-12-23T04:20:38.122Z,10.88
2022-12-23T04:23:04.884Z,11.80
2022-12-23T04:25:31.200Z,11.63
2022-12-23T04:27:57.545Z,11.45
2022-12-23T04:30:29.533Z,11.35
2022-12-23T04:33:01.178Z,10.88
2022-12-23T04:35:27.679Z,11.43
2022-12-23T04:37:53.990Z,11.80
2022-12-23T04:40:20.336Z,10.45
2022-12-23T04:42:46.881Z,10.57
2022-12-23T04:45:13.184Z,11.43
2022-12-23T04:47:40.763Z,12.55
2022-12-23T04:50:08.155Z,12.02
2022-12-23T04:52:34.512Z,11.95
2022-12-23T04:55:00.817Z,11.73
2022-12-23T04:57:27.339Z,11.43
2022-12-23T04:59:53.737Z,12.63
2022-12-23T05:02:20.215Z,12.48
2022-12-23T05:04:46.652Z,11.70
2022-12-23T05:07:13.036Z,12.23
2022-12-23T05:09:39.403Z,11.52
2022-12-23T05:12:06.016Z,11.77
2022-12-23T05:14:32.552Z,11.30
2022-12-23T05:17:05.212Z,11.32
2022-12-23T05:19:33.607Z,11.57
2022-12-23T05:22:00.069Z,11.25
2022-12-23T05:24:26.583Z,12.30
2022-12-23T05:26:59.784Z,12.30
2022-12-23T05:29:27.156Z,12.88
2022-12-23T05:31:53.647Z,11.32
2022-12-23T05:34:20.158Z,11.52
2022-12-23T05:36:46.483Z,12.57
2022-12-23T05:39:13.304Z,12.60
2022-12-23T05:41:39.660Z,11.95
2022-12-23T05:44:06.068Z,11.85
2022-12-23T05:46:32.457Z,12.15
2022-12-23T05:48:59.195Z,11.93
2022-12-23T05:51:25.755Z,11.18
2022-12-23T05:53:52.066Z,12.30
2022-12-23T05:56:18.838Z,11.05
2022-12-23T05:58:45.182Z,11.75
2022-12-23T06:01:11.575Z,10.48
2022-12-23T06:03:38.366Z,10.07
2022-12-23T06:06:05.396Z,10.27
2022-12-23T06:08:31.917Z,9.93
2022-12-23T06:10:59.997Z,8.95
2022-12-23T06:13:26.740Z,8.55
2022-12-23T06:15:53.731Z,8.52
2022-12-23T06:18:20.251Z,8.55
2022-12-23T06:20:47.743Z,7.93
2022-12-23T06:23:14.401Z,8.65
2022-12-23T06:25:40.972Z,7.65
2022-12-23T06:28:07.962Z,7.13
2022-12-23T06:30:34.713Z,7.32
2022-12-23T06:33:01.378Z,6.22
2022-12-23T06:35:27.712Z,6.57
2022-12-23T06:37:54.295Z,5.93
2022-12-23T06:40:20.851Z,6.68
2022-12-23T06:42:47.593Z,6.03
2022-12-23T06:45:15.396Z,6.00
2022-12-23T06:47:42.005Z,6.75
2022-12-23T06:50:09.090Z,6.20
2022-12-23T06:52:35.599Z,5.68
2022-12-23T06:55:01.971Z,6.07
2022-12-23T06:57:28.350Z,6.35
2022-12-23T06:59:55.056Z,6.28
2022-12-23T07:02:21.433Z,5.88
2022-12-23T07:04:48.081Z,6.65
2022-12-23T07:07:14.572Z,6.40
2022-12-23T07:09:40.969Z,6.82
2022-12-23T07:12:07.503Z,6.95
2022-12-23T07:14:33.896Z,8.05
2022-12-23T07:17:00.323Z,7.78
2022-12-23T07:19:26.679Z,8.30
2022-12-23T07:21:53.308Z,8.73
2022-12-23T07:24:19.729Z,9.32
2022-12-23T07:26:46.243Z,10.05
2022-12-23T07:29:12.776Z,10.68
2022-12-23T07:31:41.097Z,10.63
2022-12-23T07:36:34.312Z,10.27
2022-12-23T07:39:01.753Z,11.15
2022-12-23T07:41:28.398Z,11.40
2022-12-23T07:43:54.907Z,10.50
2022-12-23T07:46:21.395Z,11.70
2022-12-23T07:48:47.905Z,11.18
2022-12-23T07:51:14.616Z,11.48
2022-12-23T07:53:41.134Z,10.98
2022-12-23T07:56:08.747Z,10.93
2022-12-23T07:58:35.495Z,10.38
2022-12-23T08:01:07.864Z,10.88
2022-12-23T08:03:35.145Z,10.95
2022-12-23T08:06:12.334Z,11.43
2022-12-23T08:08:39.598Z,10.48
2022-12-23T08:11:08.716Z,10.45
2022-12-23T08:13:38.352Z,10.50
2022-12-23T08:16:06.131Z,10.85
2022-12-23T08:18:34.969Z,10.98
2022-12-23T08:21:07.673Z,12.27
2022-12-23T08:23:34.651Z,10.77
2022-12-23T08:26:07.471Z,11.18
2022-12-23T08:28:35.387Z,11.77
2022-12-23T08:31:07.270Z,12.20
2022-12-23T08:33:35.010Z,13.05
2022-12-23T08:36:01.321Z,12.93
2022-12-23T08:38:27.796Z,13.77
2022-12-23T08:40:54.307Z,13.68
2022-12-23T08:43:20.793Z,13.63
2022-12-23T08:45:47.361Z,14.32
2022-12-23T08:48:13.989Z,14.50
2022-12-23T08:50:42.479Z,14.38
2022-12-23T08:53:08.888Z,13.38
2022-12-23T08:55:43.683Z,13.68
2022-12-23T08:58:12.058Z,13.88
2022-12-23T09:00:39.056Z,13.30
2022-12-23T09:03:05.947Z,13.60
2022-12-23T09:05:32.643Z,13.80
2022-12-23T09:07:59.879Z,14.55
2022-12-23T09:10:26.734Z,13.52
2022-12-23T09:12:53.234Z,14.43
2022-12-23T09:15:19.913Z,14.57
2022-12-23T09:17:46.316Z,13.98
2022-12-23T09:20:12.862Z,14.70
2022-12-23T09:22:41.917Z,14.52
2022-12-23T09:25:08.669Z,15.02
2022-12-23T09:27:35.213Z,14.82
2022-12-23T09:30:01.603Z,15.27
2022-12-23T09:32:28.500Z,15.32
2022-12-23T09:34:54.963Z,16.40
2022-12-23T09:37:21.339Z,15.95
2022-12-23T09:39:47.730Z,15.60
2022-12-23T09:42:35.926Z,16.23
2022-12-23T09:45:21.812Z,15.38
2022-12-23T09:47:48.912Z,15.55
2022-12-23T09:50:23.826Z,15.95
2022-12-23T09:53:08.366Z,15.07
2022-12-23T09:55:49.201Z,15.45
2022-12-23T09:58:29.560Z,13.98
2022-12-23T10:01:22.766Z,14.15
2022-12-23T10:04:14.120Z,14.20
2022-12-23T10:06:44.839Z,13.88
2022-12-23T10:09:15.439Z,13.52
2022-12-23T10:11:45.860Z,12.45
2022-12-23T10:14:29.556Z,13.25
2022-12-23T10:17:00.477Z,15.23
2022-12-23T10:19:41.946Z,14.05
2022-12-23T10:22:26.074Z,11.77
2022-12-23T10:24:55.529Z,13.50
2022-12-23T10:27:34.039Z,13.18
2022-12-23T10:33:36.799Z,11.63
2022-12-23T10:36:11.316Z,12.95
2022-12-23T10:39:16.087Z,12.88
2022-12-23T10:41:51.647Z,12.23
2022-12-23T10:44:35.937Z,11.30
2022-12-23T10:47:11.824Z,13.35
2022-12-23T10:50:00.399Z,11.82
2022-12-23T10:52:30.474Z,13.20
2022-12-23T10:55:01.380Z,12.82
2022-12-23T10:57:29.403Z,15.05
2022-12-23T10:59:57.012Z,15.70
2022-12-23T11:02:31.584Z,16.58
2022-12-23T11:04:59.136Z,20.88
2022-12-23T11:07:45.738Z,18.90
2022-12-23T11:10:22.174Z,16.10
2022-12-23T11:12:51.019Z,17.30
2022-12-23T11:15:32.056Z,17.33
2022-12-23T11:18:01.234Z,17.20
2022-12-23T11:30:19.083Z,12.80
2022-12-23T11:32:45.528Z,13.07
2022-12-23T11:36:06.060Z,13.15
2022-12-23T11:56:22.602Z,11.68
2022-12-23T11:58:54.094Z,12.35
2022-12-23T12:01:23.926Z,13.57
2022-12-23T12:03:55.469Z,11.77
2022-12-23T12:06:23.472Z,12.57
2022-12-23T12:08:52.804Z,12.15
2022-12-23T12:11:25.792Z,11.77
2022-12-23T12:14:00.199Z,12.13
2022-12-23T12:16:53.704Z,11.95
2022-12-23T12:19:26.143Z,10.98
2022-12-23T12:21:57.817Z,11.32
2022-12-23T12:24:36.226Z,12.13
2022-12-23T12:27:07.037Z,13.40
2022-12-23T12:29:46.432Z,11.95
2022-12-23T12:32:39.776Z,10.73
2022-12-23T12:35:12.972Z,10.00
2022-12-23T12:37:54.187Z,9.07
2022-12-23T12:40:44.418Z,8.57
2022-12-23T12:43:31.757Z,8.02
2022-12-23T12:46:23.131Z,7.70
2022-12-23T12:48:59.656Z,7.20
2022-12-23T12:51:40.825Z,8.40
2022-12-23T12:54:27.426Z,8.27
2022-12-23T12:56:56.534Z,7.90
2022-12-23T12:59:33.664Z,7.72
2022-12-23T13:02:31.985Z,7.55
2022-12-23T13:07:40.093Z,8.60
2022-12-23T13:10:21.658Z,7.65
2022-12-23T13:13:00.024Z,9.05
2022-12-23T13:15:42.880Z,8.57
2022-12-23T13:18:38.584Z,9.13
2022-12-23T13:21:16.622Z,8.95
2022-12-23T13:24:04.370Z,9.98
2022-12-23T13:26:41.185Z,8.52
2022-12-23T13:29:24.415Z,8.98
2022-12-23T13:31:57.981Z,21.05
2022-12-23T13:34:39.922Z,12.00
2022-12-23T13:37:31.681Z,10.23
2022-12-23T13:40:12.033Z,9.93
2022-12-23T13:42:45.319Z,9.93
2022-12-23T13:45:15.726Z,11.27
2022-12-23T13:47:58.421Z,10.85
2022-12-23T13:50:44.170Z,10.73
2022-12-23T13:53:25.704Z,9.88
2022-12-23T13:56:10.752Z,9.15
2022-12-23T13:58:40.152Z,10.13
2022-12-23T14:01:09.677Z,9.93
2022-12-23T14:03:38.646Z,9.85
2022-12-23T14:06:23.417Z,10.05
2022-12-23T14:08:51.552Z,10.75
2022-12-23T14:11:26.226Z,9.98
2022-12-23T14:14:04.586Z,9.90
2022-12-23T14:16:42.852Z,11.70
2022-12-23T14:19:18.604Z,13.65
2022-12-23T14:22:07.289Z,16.20
2022-12-23T14:24:53.163Z,15.27
2022-12-23T14:27:44.422Z,12.30
2022-12-23T14:30:32.077Z,11.77
2022-12-23T14:33:00.486Z,10.75
2022-12-23T14:35:46.952Z,10.95
2022-12-23T14:38:16.677Z,11.30
2022-12-23T14:40:42.961Z,10.77
2022-12-23T14:43:56.013Z,11.18
2022-12-23T14:46:34.414Z,10.57
2022-12-23T14:49:29.683Z,10.15
2022-12-23T14:51:50.649Z,10.20
2022-12-23T14:54:18.994Z,9.35
2022-12-23T14:57:04.761Z,9.35
2022-12-23T14:59:51.350Z,8.80
2022-12-23T15:02:35.034Z,8.82
2022-12-23T15:05:02.133Z,8.63
2022-12-23T15:07:37.621Z,10.55
2022-12-23T15:10:09.346Z,8.80
2022-12-23T15:12:41.960Z,7.90
2022-12-23T15:15:18.901Z,7.97
2022-12-23T15:17:45.889Z,7.57
2022-12-23T15:20:15.797Z,7.68
2022-12-23T15:22:44.273Z,5.30
2022-12-23T15:25:31.817Z,5.25
2022-12-23T15:28:02.165Z,4.87
2022-12-23T15:30:36.493Z,5.07
2022-12-23T15:33:27.940Z,5.65
2022-12-23T15:35:53.891Z,5.28
2022-12-23T15:38:22.187Z,6.22
2022-12-23T15:41:13.141Z,6.45
2022-12-23T15:43:43.457Z,6.15
2022-12-23T15:46:25.066Z,6.25
2022-12-23T15:48:53.668Z,6.88
2022-12-23T15:52:07.237Z,6.10
2022-12-23T15:54:29.831Z,5.60
2022-12-23T15:56:58.574Z,5.53
2022-12-23T15:59:29.467Z,4.95
2022-12-23T16:01:56.151Z,5.25
2022-12-23T16:04:26.989Z,5.22
2022-12-23T16:06:54.342Z,5.57
2022-12-23T16:09:20.650Z,5.20
2022-12-23T16:12:00.397Z,5.53
2022-12-23T16:14:36.050Z,4.88
2022-12-23T16:17:08.182Z,5.03
2022-12-23T16:19:50.823Z,5.20
2022-12-23T16:22:20.416Z,5.20
2022-12-23T16:24:50.536Z,5.00
2022-12-23T16:27:19.490Z,5.35
2022-12-23T16:29:48.428Z,6.68
2022-12-23T16:32:19.163Z,13.10
2022-12-23T16:34:49.872Z,10.73
2022-12-23T16:37:16.497Z,7.30
2022-12-23T16:39:42.902Z,6.05
2022-12-23T16:42:09.502Z,6.10
2022-12-23T16:44:35.901Z,5.57
2022-12-23T16:47:09.192Z,6.60
2022-12-23T16:49:37.414Z,6.30
2022-12-23T16:52:06.961Z,5.68
2022-12-23T16:54:34.621Z,6.30
2022-12-23T16:57:01.035Z,6.83
2022-12-23T16:59:27.443Z,7.53
2022-12-23T17:01:58.177Z,6.40
2022-12-23T17:04:29.341Z,7.07
2022-12-23T17:06:55.686Z,8.90
2022-12-23T17:09:22.129Z,7.43
2022-12-23T17:11:53.103Z,13.75
2022-12-23T17:14:25.766Z,13.05
2022-12-23T17:16:52.647Z,14.55
2022-12-23T17:19:28.767Z,12.93
2022-12-23T17:22:01.226Z,9.48
2022-12-23T17:24:27.998Z,8.15
2022-12-23T17:26:56.585Z,7.38
2022-12-23T17:31:50.501Z,7.65
2022-12-23T17:34:20.034Z,7.90
2022-12-23T17:36:50.246Z,8.57
2022-12-23T17:39:17.544Z,7.72
2022-12-23T17:41:44.090Z,8.63
2022-12-23T17:44:13.836Z,9.00
2022-12-23T17:46:40.248Z,8.30
2022-12-23T17:49:06.609Z,8.98
2022-12-23T17:51:33.235Z,8.23
2022-12-23T17:53:59.971Z,9.10
2022-12-23T17:56:30.681Z,9.23
2022-12-23T17:58:57.033Z,9.07
2022-12-23T18:01:32.398Z,11.65
2022-12-23T18:04:00.456Z,8.95
2022-12-23T18:06:29.067Z,8.82
2022-12-23T18:08:57.289Z,8.90
2022-12-23T18:11:32.861Z,10.55
2022-12-23T18:13:59.494Z,10.75
2022-12-23T18:16:26.949Z,9.57
2022-12-23T18:18:53.969Z,8.73
2022-12-23T18:21:23.663Z,8.95
2022-12-23T18:23:51.188Z,8.02
2022-12-23T18:26:17.847Z,8.15
2022-12-23T18:28:44.451Z,8.32
2022-12-23T18:31:17.287Z,7.03
2022-12-23T18:33:43.819Z,6.75
2022-12-23T18:36:22.831Z,7.13
2022-12-23T18:38:49.464Z,6.55
2022-12-23T18:41:15.948Z,6.57
2022-12-23T18:43:42.562Z,6.15
2022-12-23T18:46:08.919Z,6.22
2022-12-23T18:48:35.329Z,5.28
2022-12-23T18:51:01.883Z,5.82
2022-12-23T18:53:28.269Z,5.60
2022-12-23T18:55:55.019Z,6.05
2022-12-23T18:58:22.206Z,5.40
2022-12-23T19:00:50.250Z,4.88
2022-12-23T19:03:20.826Z,5.03
2022-12-23T19:05:48.744Z,5.32
2022-12-23T19:08:20.332Z,6.00
2022-12-23T19:10:51.375Z,6.85
2022-12-23T19:13:18.722Z,6.90
2022-12-23T19:15:48.144Z,8.20
2022-12-23T19:18:16.262Z,7.03
2022-12-23T19:20:44.077Z,6.65
2022-12-23T19:23:11.798Z,7.38
2022-12-23T19:25:42.434Z,8.67
2022-12-23T19:28:09.655Z,7.75
2022-12-23T19:30:36.179Z,6.55
2022-12-23T19:33:02.761Z,5.55
2022-12-23T19:35:29.653Z,5.93
2022-12-23T19:37:56.175Z,5.78
2022-12-23T19:40:22.712Z,6.00
2022-12-23T19:42:49.104Z,5.78
2022-12-23T19:45:17.222Z,6.05
2022-12-23T19:47:43.640Z,5.75
2022-12-23T19:50:11.405Z,5.75
2022-12-23T19:52:37.874Z,7.18
2022-12-23T19:55:04.844Z,6.10
2022-12-23T19:57:31.447Z,5.43
2022-12-23T19:59:57.892Z,7.13
2022-12-23T20:02:24.531Z,4.63
2022-12-23T20:04:51.036Z,4.78
2022-12-23T20:07:17.437Z,4.82
2022-12-23T20:09:43.820Z,5.75
2022-12-23T20:12:10.831Z,5.32
2022-12-23T20:14:37.212Z,5.28
2022-12-23T20:17:03.686Z,5.30
2022-12-23T20:19:30.083Z,5.03
2022-12-23T20:21:56.620Z,5.07
2022-12-23T20:24:23.059Z,5.57
2022-12-23T20:26:49.560Z,4.72
2022-12-23T20:29:16.189Z,7.50
2022-12-23T20:31:42.756Z,7.57
2022-12-23T20:34:15.844Z,5.85
2022-12-23T20:36:42.406Z,6.25
2022-12-23T20:39:09.161Z,6.20
2022-12-23T20:41:35.723Z,6.28
2022-12-23T20:44:33.147Z,6.75
2022-12-23T20:46:48.667Z,6.40
2022-12-23T20:49:15.100Z,6.78
2022-12-23T20:51:42.586Z,7.18
2022-12-23T20:54:09.372Z,7.20
2022-12-23T20:56:36.057Z,6.63
2022-12-23T20:59:03.789Z,7.05
2022-12-23T21:01:35.865Z,7.97
2022-12-23T21:04:15.786Z,5.95
2022-12-23T21:06:43.615Z,5.40
2022-12-23T21:09:12.863Z,6.27
2022-12-23T21:11:43.021Z,5.28
2022-12-23T21:14:10.441Z,5.63
2022-12-23T21:16:37.861Z,6.32
2022-12-23T21:19:07.559Z,5.75
2022-12-23T21:21:34.611Z,5.55
2022-12-23T21:24:04.114Z,6.65
2022-12-23T21:26:33.113Z,6.10
2022-12-23T21:31:28.885Z,7.22
2022-12-23T21:33:55.425Z,5.18
2022-12-23T21:36:24.318Z,6.22
2022-12-23T21:38:51.313Z,6.75
2022-12-23T21:41:20.924Z,6.07
2022-12-23T21:43:48.028Z,5.78
2022-12-23T21:46:16.937Z,5.18
2022-12-23T21:48:44.182Z,6.45
2022-12-23T21:51:21.017Z,7.10
2022-12-23T21:53:50.500Z,9.38
2022-12-23T21:56:19.980Z,10.32
2022-12-23T21:58:46.959Z,7.95
2022-12-23T22:01:19.221Z,7.38
2022-12-23T22:03:47.706Z,7.75
2022-12-23T22:06:23.244Z,7.03
2022-12-23T22:08:51.610Z,9.23
2022-12-23T22:11:38.130Z,13.00
2022-12-23T22:14:07.519Z,7.47
2022-12-23T22:16:35.125Z,6.20
2022-12-23T22:19:02.192Z,7.87
2022-12-23T22:21:31.085Z,9.10
2022-12-23T22:23:57.831Z,6.95
2022-12-23T22:26:27.573Z,8.00
2022-12-23T22:28:55.864Z,7.70
2022-12-23T22:31:44.935Z,9.90
2022-12-23T22:34:17.438Z,11.68
2022-12-23T22:36:43.957Z,9.05
2022-12-23T22:39:17.757Z,10.85
2022-12-23T22:41:46.404Z,8.55
2022-12-23T22:44:16.257Z,14.07
2022-12-23T22:46:42.765Z,8.75
2022-12-23T22:49:13.681Z,6.18
2022-12-23T22:51:41.487Z,5.57
2022-12-23T22:54:08.961Z,4.97
2022-12-23T22:56:35.330Z,5.43
2022-12-23T22:59:01.655Z,5.15
2022-12-23T23:01:31.197Z,4.90
2022-12-23T23:04:01.010Z,5.35
2022-12-23T23:06:38.407Z,5.25
2022-12-23T23:09:11.466Z,4.82
2022-12-23T23:11:38.172Z,5.20
2022-12-23T23:14:04.641Z,5.35
2022-12-23T23:16:31.534Z,5.68
2022-12-23T23:18:58.925Z,5.50
2022-12-23T23:21:25.843Z,5.47
2022-12-23T23:23:52.324Z,5.25
2022-12-23T23:26:20.223Z,5.18
2022-12-23T23:28:47.345Z,5.25
2022-12-23T23:34:00.196Z,5.82
2022-12-23T23:36:26.706Z,5.35
2022-12-23T23:38:53.256Z,5.18
2022-12-23T23:41:23.204Z,4.65
2022-12-23T23:43:50.536Z,3.92
2022-12-23T23:46:17.020Z,4.63
2022-12-23T23:48:43.381Z,5.18
2022-12-23T23:51:09.925Z,5.15
2022-12-23T23:53:36.334Z,5.15
2022-12-23T23:56:08.054Z,4.78
2022-12-23T23:58:36.166Z,5.45
